East Shoals, Indiana
Current Conditions -  °F | °C
As of 1:55 PM on Sunday 25 Jan 2015 (Local Time) from KDCY Reporting Station
Moderate Rain Moderate Rain  
Wind Chill: 36°   Ceiling: 700
Heat Index: 39°   Visibility: 4mi
Dew Point: 36°   Wind: 5mph
Humidity: 88%   Direction: 150°SSE
Pressure: 29.59"   Gusts: NA
Location:  38.6262°N, 86.7615°W
Report Text: KDCY 251955Z AUTO 15004KT 4SM RA OVC007 04/02 A2959 RMK AO2 P0003 T00410022
Loading
Personal Weather Stations






























Interactive Weather Map New forecast layout! Learn more

10-Day Weather Forecast

Advertisements
Track Severe Weather on mobile